| time (UTC) | temp F | wind direction | speed MPH | gust MPH | rain 1hr in | rain 24hr in | rain mn in | humidity % | barometer mb |
| 20260510061539 | 51 | 108 | 0.0 | 4.0 | 0.00 | 0.16 | 0.00 | 94 | 1009.3 |
| 20260510060047 | 51 | 321 | 0.0 | 3.0 | 0.00 | 0.16 | 0.00 | 94 | 1009.4 |
| 20260510054534 | 51 | 25 | 0.0 | 2.0 | 0.00 | 0.16 | 0.00 | 94 | 1009.1 |
| 20260510053033 | 51 | 297 | 0.0 | 2.0 | 0.00 | 0.16 | 0.00 | 95 | 1008.8 |
| 20260510051540 | 51 | 343 | 2.0 | 6.0 | 0.00 | 0.16 | 0.00 | 95 | 1008.7 |
| 20260510050031 | 51 | 360 | 2.0 | 6.0 | 0.00 | 0.16 | 0.00 | 95 | 1008.8 |
| 20260510044531 | 50 | 307 | 3.0 | 6.0 | 0.00 | 0.16 | 0.00 | 95 | 1009.0 |
| 20260510043030 | 50 | 89 | 0.0 | 2.0 | 0.00 | 0.16 | 0.00 | 95 | 1009.1 |
| 20260510041530 | 51 | 107 | 1.0 | 3.0 | 0.00 | 0.16 | 0.00 | 95 | 1008.8 |
| 20260510040026 | 51 | 115 | 1.0 | 4.0 | 0.00 | 0.16 | 0.00 | 95 | 1008.8 |
| 20260510034525 | 51 | 108 | 1.0 | 3.0 | 0.00 | 0.16 | 0.16 | 95 | 1008.8 |
| 20260510033025 | 51 | 89 | 0.0 | 3.0 | 0.00 | 0.16 | 0.16 | 95 | 1008.7 |
| 20260510031536 | 51 | 281 | 1.0 | 3.0 | 0.00 | 0.16 | 0.16 | 96 | 1008.7 |
| 20260510030024 | 51 | 42 | 0.0 | 4.0 | 0.00 | 0.16 | 0.16 | 96 | 1009.0 |
| 20260510024523 | 51 | 101 | 0.0 | 5.0 | 0.00 | 0.16 | 0.16 | 96 | 1009.0 |
| 20260510023036 | 51 | 338 | 1.0 | 4.0 | 0.00 | 0.16 | 0.16 | 97 | 1009.0 |
| 20260510021524 | 50 | 337 | 1.0 | 6.0 | 0.00 | 0.16 | 0.16 | 97 | 1008.8 |
| 20260510020019 | 50 | 71 | 0.0 | 2.0 | 0.00 | 0.16 | 0.16 | 97 | 1009.0 |
| 20260510014520 | 49 | 70 | 0.0 | 2.0 | 0.00 | 0.16 | 0.16 | 97 | 1008.9 |
| 20260510013018 | 49 | 71 | 0.0 | 2.0 | 0.00 | 0.16 | 0.16 | 97 | 1009.0 |
| 20260510011523 | 48 | 334 | 0.0 | 2.0 | 0.00 | 0.16 | 0.16 | 96 | 1009.0 |
| 20260510010023 | 48 | 129 | 0.0 | 0.0 | 0.00 | 0.16 | 0.16 | 96 | 1008.9 |
| 20260510004516 | 48 | 128 | 0.0 | 1.0 | 0.00 | 0.16 | 0.16 | 96 | 1009.3 |
| 20260510003016 | 48 | 133 | 0.0 | 2.0 | 0.00 | 0.16 | 0.16 | 96 | 1009.2 |
| 20260510001516 | 48 | 214 | 0.0 | 1.0 | 0.01 | 0.16 | 0.16 | 96 | 1009.0 |
| 20260510000015 | 48 | 216 | 0.0 | 2.0 | 0.01 | 0.16 | 0.16 | 96 | 1008.7 |
| 20260509234514 | 48 | 204 | 1.0 | 3.0 | 0.01 | 0.16 | 0.16 | 95 | 1008.7 |
| 20260509233013 | 49 | 136 | 0.0 | 2.0 | 0.01 | 0.16 | 0.16 | 95 | 1008.7 |
| 20260509231514 | 49 | 91 | 0.0 | 1.0 | 0.00 | 0.15 | 0.15 | 95 | 1008.4 |
| 20260509230013 | 49 | 91 | 0.0 | 1.0 | 0.00 | 0.15 | 0.15 | 95 | 1008.4 |
| 20260509224512 | 49 | 91 | 0.0 | 1.0 | 0.00 | 0.15 | 0.15 | 95 | 1008.4 |
| 20260509223011 | 49 | 86 | 1.0 | 3.0 | 0.00 | 0.15 | 0.15 | 94 | 1008.5 |
| 20260509221511 | 50 | 92 | 0.0 | 2.0 | 0.00 | 0.15 | 0.15 | 94 | 1008.4 |
| 20260509220010 | 50 | 76 | 0.0 | 4.0 | 0.00 | 0.15 | 0.15 | 95 | 1008.5 |
| 20260509214505 | 49 | 81 | 0.0 | 1.0 | 0.00 | 0.15 | 0.15 | 95 | 1008.7 |
| 20260509213001 | 48 | 82 | 0.0 | 4.0 | 0.00 | 0.15 | 0.15 | 95 | 1008.9 |
| 20260509211615 | 48 | 89 | 0.0 | 2.0 | 0.00 | 0.15 | 0.15 | 94 | 1009.1 |
| 20260509204603 | 48 | 93 | 0.0 | 0.0 | 0.00 | 0.15 | 0.15 | 94 | 1009.4 |
| 20260509203059 | 48 | 93 | 0.0 | 1.0 | 0.00 | 0.15 | 0.15 | 94 | 1009.6 |
| 20260509201555 | 48 | 94 | 0.0 | 1.0 | 0.00 | 0.15 | 0.15 | 94 | 1009.8 |
| 20260509200052 | 48 | 94 | 0.0 | 1.0 | 0.00 | 0.15 | 0.15 | 94 | 1010.0 |
| 20260509194550 | 47 | 94 | 0.0 | 1.0 | 0.00 | 0.15 | 0.15 | 94 | 1010.0 |
| 20260509193050 | 47 | 93 | 0.0 | 2.0 | 0.00 | 0.15 | 0.15 | 94 | 1010.0 |
| 20260509191548 | 47 | 90 | 0.0 | 2.0 | 0.00 | 0.15 | 0.15 | 93 | 1010.1 |
| 20260509190146 | 48 | 88 | 1.0 | 2.0 | 0.00 | 0.15 | 0.15 | 93 | 1010.3 |
| 20260509184547 | 48 | 67 | 0.0 | 3.0 | 0.00 | 0.15 | 0.15 | 93 | 1010.3 |
| 20260509183044 | 48 | 68 | 0.0 | 2.0 | 0.00 | 0.15 | 0.15 | 93 | 1010.4 |
| 20260509181540 | 47 | 72 | 1.0 | 3.0 | 0.00 | 0.15 | 0.15 | 93 | 1010.4 |
| 20260509180037 | 47 | 42 | 0.0 | 1.0 | 0.00 | 0.15 | 0.15 | 94 | 1010.5 |
| 20260509174535 | 47 | 340 | 1.0 | 3.0 | 0.02 | 0.15 | 0.15 | 93 | 1010.5 |
| 20260509173030 | 46 | 342 | 1.0 | 3.0 | 0.03 | 0.15 | 0.15 | 93 | 1010.7 |
| 20260509171528 | 46 | 81 | 0.0 | 3.0 | 0.05 | 0.15 | 0.15 | 93 | 1011.0 |
| 20260509170030 | 46 | 103 | 0.0 | 2.0 | 0.06 | 0.15 | 0.15 | 93 | 1011.2 |
| 20260509164524 | 46 | 318 | 0.0 | 0.0 | 0.06 | 0.13 | 0.13 | 92 | 1011.2 |
| 20260509163026 | 46 | 318 | 0.0 | 2.0 | 0.08 | 0.12 | 0.12 | 92 | 1011.5 |
| 20260509161521 | 46 | 62 | 0.0 | 3.0 | 0.08 | 0.10 | 0.10 | 92 | 1011.7 |
| 20260509160022 | 46 | 78 | 0.0 | 1.0 | 0.08 | 0.09 | 0.09 | 91 | 1011.8 |
| 20260509154517 | 45 | 79 | 0.0 | 1.0 | 0.07 | 0.07 | 0.07 | 90 | 1012.0 |
| 20260509153020 | 45 | 78 | 0.0 | 1.0 | 0.04 | 0.04 | 0.04 | 89 | 1012.2 |
| 20260509151514 | 45 | 79 | 0.0 | 2.0 | 0.02 | 0.02 | 0.02 | 87 | 1012.3 |
| 20260509150014 | 45 | 72 | 0.0 | 2.0 | 0.01 | 0.01 | 0.01 | 86 | 1012.3 |
| 20260509144512 | 45 | 65 | 0.0 | 2.0 | 0.00 | 0.00 | 0.00 | 84 | 1012.4 |
| 20260509143012 | 45 | 56 | 0.0 | 1.0 | 0.00 | 0.00 | 0.00 | 83 | 1012.3 |
| 20260509141512 | 45 | 69 | 0.0 | 5.0 | 0.00 | 0.00 | 0.00 | 82 | 1012.4 |
| 20260509140007 | 44 | 130 | 1.0 | 2.0 | 0.00 | 0.00 | 0.00 | 84 | 1012.3 |
| 20260509134503 | 43 | 131 | 0.0 | 1.0 | 0.00 | 0.00 | 0.00 | 83 | 1012.5 |
| 20260509133003 | 43 | 131 | 1.0 | 2.0 | 0.00 | 0.00 | 0.00 | 83 | 1012.5 |
| 20260509131501 | 43 | 130 | 0.0 | 0.0 | 0.00 | 0.00 | 0.00 | 84 | 1012.5 |
| 20260509124612 | 42 | 236 | 0.0 | 1.0 | 0.00 | 0.00 | 0.00 | 84 | 1012.4 |
| 20260509123058 | 42 | 238 | 1.0 | 2.0 | 0.00 | 0.00 | 0.00 | 84 | 1012.5 |
| 20260509121557 | 42 | 291 | 0.0 | 0.0 | 0.00 | 0.00 | 0.00 | 85 | 1012.7 |
| 20260509120056 | 41 | 291 | 0.0 | 0.0 | 0.00 | 0.00 | 0.00 | 85 | 1012.9 |
| 20260509114559 | 41 | 291 | 0.0 | 0.0 | 0.00 | 0.00 | 0.00 | 86 | 1013.0 |
| 20260509113052 | 40 | 291 | 0.0 | 1.0 | 0.00 | 0.00 | 0.00 | 88 | 1013.1 |
| 20260509111551 | 40 | 292 | 0.0 | 0.0 | 0.00 | 0.00 | 0.00 | 92 | 1012.8 |
| 20260509110054 | 38 | 292 | 0.0 | 0.0 | 0.00 | 0.00 | 0.00 | 94 | 1012.9 |
| 20260509104547 | 37 | 292 | 0.0 | 1.0 | 0.00 | 0.00 | 0.00 | 94 | 1013.0 |
| 20260509103046 | 36 | 292 | 1.0 | 2.0 | 0.00 | 0.00 | 0.00 | 95 | 1013.1 |
| 20260509101546 | 35 | 343 | 0.0 | 1.0 | 0.00 | 0.00 | 0.00 | 95 | 1013.0 |
| 20260509100100 | 35 | 343 | 0.0 | 1.0 | 0.00 | 0.00 | 0.00 | 94 | 1012.9 |
| 20260509094545 | 34 | 343 | 0.0 | 0.0 | 0.00 | 0.00 | 0.00 | 94 | 1012.8 |
| 20260509093045 | 34 | 343 | 0.0 | 1.0 | 0.00 | 0.00 | 0.00 | 94 | 1012.8 |
| 20260509091542 | 34 | 343 | 0.0 | 0.0 | 0.00 | 0.00 | 0.00 | 93 | 1012.9 |
| 20260509090041 | 34 | 343 | 0.0 | 2.0 | 0.00 | 0.00 | 0.00 | 93 | 1012.7 |
| 20260509084546 | 34 | 323 | 0.0 | 0.0 | 0.00 | 0.00 | 0.00 | 93 | 1012.6 |
| 20260509083039 | 35 | 310 | 0.0 | 1.0 | 0.00 | 0.00 | 0.00 | 93 | 1012.6 |
| 20260509081538 | 35 | 310 | 0.0 | 0.0 | 0.00 | 0.00 | 0.00 | 93 | 1012.6 |
| 20260509080054 | 34 | 310 | 0.0 | 0.0 | 0.00 | 0.00 | 0.00 | 93 | 1012.6 |
| 20260509074536 | 34 | 310 | 0.0 | 0.0 | 0.00 | 0.00 | 0.00 | 92 | 1012.5 |
| 20260509073110 | 34 | 333 | 0.0 | 3.0 | 0.00 | 0.00 | 0.00 | 92 | 1012.4 |
| 20260509071532 | 34 | 322 | 0.0 | 1.0 | 0.00 | 0.00 | 0.00 | 92 | 1012.2 |
| 20260509070031 | 34 | 321 | 0.0 | 0.0 | 0.00 | 0.00 | 0.00 | 91 | 1012.4 |
| 20260509064529 | 33 | 321 | 0.0 | 0.0 | 0.00 | 0.00 | 0.00 | 91 | 1012.5 |
| 20260509063030 | 34 | 321 | 0.0 | 2.0 | 0.00 | 0.00 | 0.00 | 90 | 1012.7 |